Time;durP1;ratioP1;P1;durP2;ratioP2;P2;SDS_P1;SDS_P2;PMS_P1;PMS_P2;Temp;Humidity;BMP_temperature;BMP_pressure;BME280_temperature;BME280_humidity;BME280_pressure;Samples;Min_cycle;Max_cycle;Signal;HPM_P1;HPM_P2
2022/01/18 00:00:50;;;;;;;32.75;4.82;;;7.30;99.90;;;;;;4955971;29;20047;-77
2022/01/18 00:03:16;;;;;;;35.80;6.03;;;7.30;99.90;;;;;;4955468;29;20561;-77
2022/01/18 00:05:44;;;;;;;36.60;6.70;;;7.40;99.90;;;;;;4939036;29;20090;-77
2022/01/18 00:08:10;;;;;;;37.33;5.15;;;7.30;99.90;;;;;;4954671;29;20043;-76
2022/01/18 00:10:36;;;;;;;32.42;4.18;;;7.30;99.90;;;;;;4955165;29;20094;-77
2022/01/18 00:15:32;;;;;;;41.92;6.18;;;7.30;99.90;;;;;;4954280;29;20043;-77
2022/01/18 00:20:38;;;;;;;30.38;5.13;;;7.30;99.90;;;;;;4955232;29;20495;-79
2022/01/18 00:23:04;;;;;;;32.13;4.88;;;7.30;99.90;;;;;;4939485;29;20098;-79
2022/01/18 00:25:30;;;;;;;39.80;6.97;;;7.20;99.90;;;;;;4953866;29;20099;-79
2022/01/18 00:27:55;;;;;;;33.85;4.85;;;7.20;99.90;;;;;;4956375;28;20451;-79
2022/01/18 00:33:01;;;;;;;31.73;4.70;;;7.20;99.90;;;;;;4956065;28;20110;-79
2022/01/18 00:35:32;;;;;;;40.22;5.35;;;7.20;99.90;;;;;;4954719;29;20047;-79
2022/01/18 00:37:58;;;;;;;21.48;4.38;;;7.20;99.90;;;;;;4954821;29;20046;-79
2022/01/18 00:40:24;;;;;;;31.60;5.38;;;7.20;99.90;;;;;;4939035;29;20047;-79
2022/01/18 00:42:50;;;;;;;30.80;4.20;;;7.20;99.90;;;;;;4955227;28;20529;-79
2022/01/18 00:45:16;;;;;;;49.63;6.70;;;7.10;99.90;;;;;;4955595;28;20043;-79
2022/01/18 00:47:42;;;;;;;28.30;4.32;;;7.10;99.90;;;;;;4954503;29;20043;-79
2022/01/18 00:50:08;;;;;;;37.70;6.60;;;7.10;99.90;;;;;;4954485;29;20062;-79
2022/01/18 00:52:39;;;;;;;31.52;4.40;;;7.00;99.90;;;;;;4938777;29;20035;-79
2022/01/18 00:55:05;;;;;;;28.23;6.20;;;6.90;99.90;;;;;;4954182;29;20533;-79
2022/01/18 00:57:30;;;;;;;27.80;4.78;;;6.90;99.90;;;;;;4954513;29;20047;-79
2022/01/18 00:59:56;;;;;;;28.83;4.93;;;6.90;99.90;;;;;;4954335;29;20050;-79
2022/01/18 01:02:22;;;;;;;27.08;5.15;;;6.90;99.90;;;;;;4955245;28;20047;-79
2022/01/18 01:04:48;;;;;;;24.70;4.35;;;6.80;99.90;;;;;;4954473;29;20407;-79
2022/01/18 01:07:16;;;;;;;23.65;5.03;;;6.70;99.90;;;;;;4952657;28;20082;-79
2022/01/18 01:09:41;;;;;;;29.05;6.68;;;6.70;99.90;;;;;;4954056;29;20044;-79
2022/01/18 01:12:08;;;;;;;29.45;5.28;;;6.70;99.90;;;;;;4954158;29;20039;-79
2022/01/18 01:14:34;;;;;;;34.47;6.38;;;6.70;99.90;;;;;;4954075;29;20063;-79
2022/01/18 01:17:19;;;;;;;27.45;4.25;;;6.60;99.90;;;;;;4953788;29;20113;-79
2022/01/18 01:31:58;;;;;;;34.75;5.00;;;6.60;99.90;;;;;;4953191;29;20159;-79
2022/01/18 01:44:17;;;;;;;24.30;4.68;;;6.50;99.90;;;;;;4953663;29;20205;-79
2022/01/18 01:46:44;;;;;;;30.13;5.50;;;6.50;99.90;;;;;;4938720;29;20039;-79
2022/01/18 01:49:13;;;;;;;19.98;4.63;;;6.50;99.90;;;;;;4939667;29;20074;-79
2022/01/18 01:51:39;;;;;;;40.00;5.47;;;6.40;99.90;;;;;;4954745;29;20098;-79
2022/01/18 01:54:07;;;;;;;26.50;6.72;;;6.40;99.90;;;;;;4953634;29;20095;-79
2022/01/18 01:56:34;;;;;;;33.03;6.75;;;6.40;99.90;;;;;;4953409;29;20494;-79
2022/01/18 01:59:00;;;;;;;35.60;5.47;;;6.40;99.90;;;;;;4953161;29;20118;-79
2022/01/18 02:01:27;;;;;;;34.63;5.32;;;6.40;99.90;;;;;;4953567;29;20406;-79
2022/01/18 02:03:52;;;;;;;21.05;4.32;;;6.40;99.90;;;;;;4952630;29;20043;-79
2022/01/18 02:06:18;;;;;;;29.27;4.57;;;6.40;99.90;;;;;;4952990;29;20043;-79
2022/01/18 02:08:44;;;;;;;24.52;4.63;;;6.40;99.90;;;;;;4952530;29;20042;-79
2022/01/18 02:11:11;;;;;;;21.42;5.03;;;6.40;99.90;;;;;;4952286;29;20039;-79
2022/01/18 02:13:37;;;;;;;25.27;4.45;;;6.40;99.90;;;;;;4953137;29;20067;-79
2022/01/18 02:23:59;;;;;;;28.75;8.05;;;6.30;99.90;;;;;;4952918;29;20178;-79
2022/01/18 02:26:24;;;;;;;25.00;4.72;;;6.30;99.90;;;;;;4952817;29;20129;-79
2022/01/18 02:28:50;;;;;;;31.27;5.72;;;6.30;99.90;;;;;;4952848;29;20039;-79
2022/01/18 02:31:19;;;;;;;31.52;4.85;;;6.30;99.90;;;;;;4952159;29;20039;-79
2022/01/18 02:33:44;;;;;;;24.08;4.95;;;6.30;99.90;;;;;;4954070;29;20130;-80
2022/01/18 02:36:10;;;;;;;23.80;5.10;;;6.30;99.90;;;;;;4954867;29;20074;-80
2022/01/18 02:38:35;;;;;;;19.98;4.10;;;6.30;99.90;;;;;;4955155;29;20043;-80
2022/01/18 02:41:01;;;;;;;25.10;5.00;;;6.30;99.90;;;;;;4954593;29;20050;-80
2022/01/18 02:43:50;;;;;;;26.65;4.15;;;6.30;99.90;;;;;;4954930;29;20039;-80
2022/01/18 02:46:16;;;;;;;16.55;5.15;;;6.20;99.90;;;;;;4955545;29;20106;-80
2022/01/18 02:48:41;;;;;;;28.83;3.85;;;6.30;99.90;;;;;;4938516;29;20047;-80
2022/01/18 02:51:07;;;;;;;19.52;4.50;;;6.30;99.90;;;;;;4955121;29;20046;-80
2022/01/18 02:53:52;;;;;;;34.42;4.72;;;6.30;99.90;;;;;;4955414;29;20237;-80
2022/01/18 02:56:17;;;;;;;34.85;5.43;;;6.30;99.90;;;;;;4955460;29;20047;-80
2022/01/18 02:58:43;;;;;;;12.73;4.30;;;6.30;99.90;;;;;;4938947;29;20041;-80
2022/01/18 03:03:36;;;;;;;20.50;3.88;;;6.20;99.90;;;;;;4952403;29;20580;-76
2022/01/18 03:06:07;;;;;;;20.55;3.90;;;6.30;99.90;;;;;;4952103;29;20077;-76
2022/01/18 03:08:33;;;;;;;15.52;3.95;;;6.30;99.90;;;;;;4951969;29;20039;-76
2022/01/18 03:11:01;;;;;;;16.52;3.05;;;6.20;99.90;;;;;;4952395;29;20407;-77
2022/01/18 03:13:26;;;;;;;18.15;3.15;;;6.20;99.90;;;;;;4952407;29;20087;-77
2022/01/18 03:15:53;;;;;;;16.98;4.47;;;6.10;99.90;;;;;;4951512;29;20527;-77
2022/01/18 03:18:19;;;;;;;15.85;2.75;;;6.10;99.90;;;;;;4952656;29;20082;-76
2022/01/18 03:20:44;;;;;;;16.45;3.10;;;6.10;99.90;;;;;;4936347;29;20039;-76
2022/01/18 03:23:15;;;;;;;15.55;3.17;;;6.10;99.90;;;;;;4952489;29;20039;-76
2022/01/18 03:25:53;;;;;;;19.95;3.75;;;6.10;99.90;;;;;;4951179;29;20048;-76
2022/01/18 03:28:20;;;;;;;9.40;2.80;;;6.10;99.90;;;;;;4953762;28;20039;-76
2022/01/18 03:30:49;;;;;;;19.05;2.95;;;6.00;99.90;;;;;;4952717;28;20438;-77
2022/01/18 03:33:18;;;;;;;23.80;5.53;;;6.00;99.90;;;;;;4939452;29;20046;-77
2022/01/18 03:35:44;;;;;;;24.92;4.18;;;6.00;99.90;;;;;;4955238;29;20043;-77
2022/01/18 03:38:11;;;;;;;22.02;3.10;;;6.10;99.90;;;;;;4956007;29;20055;-77
2022/01/18 03:40:37;;;;;;;23.52;3.47;;;6.00;99.90;;;;;;4955858;29;20047;-76
2022/01/18 03:43:06;;;;;;;13.18;3.35;;;6.00;99.90;;;;;;4955764;29;20130;-78
2022/01/18 03:45:44;;;;;;;17.52;3.50;;;6.00;99.90;;;;;;4955467;29;20122;-78
2022/01/18 03:48:25;;;;;;;14.57;3.58;;;6.00;99.90;;;;;;4955739;29;20039;-78
2022/01/18 03:50:51;;;;;;;22.27;3.38;;;6.00;99.90;;;;;;4955876;29;20055;-78
2022/01/18 03:53:19;;;;;;;16.67;3.63;;;6.00;99.90;;;;;;4955024;29;20039;-78
2022/01/18 03:55:45;;;;;;;26.98;3.95;;;6.00;99.90;;;;;;4955530;29;20082;-78
2022/01/18 03:58:10;;;;;;;24.33;3.97;;;6.00;99.90;;;;;;4939501;29;20071;-78
2022/01/18 04:00:36;;;;;;;15.93;4.47;;;6.00;99.90;;;;;;4956092;28;20050;-78
2022/01/18 04:03:01;;;;;;;17.98;3.25;;;6.00;99.90;;;;;;4955887;29;20043;-78
2022/01/18 04:05:27;;;;;;;19.38;4.00;;;6.10;99.90;;;;;;4955199;29;20094;-78
2022/01/18 04:07:53;;;;;;;21.67;3.88;;;6.10;99.90;;;;;;4955404;29;20046;-77
2022/01/18 04:10:18;;;;;;;20.25;4.53;;;6.00;99.90;;;;;;4955772;28;20414;-78
2022/01/18 04:12:44;;;;;;;11.48;3.58;;;6.10;99.90;;;;;;4955361;29;20479;-78
2022/01/18 04:15:13;;;;;;;20.20;4.03;;;6.10;99.90;;;;;;4939144;29;20063;-78
2022/01/18 04:28:33;;;;;;;27.55;4.57;;;6.10;99.90;;;;;;4954559;29;20043;-77
2022/01/18 04:30:59;;;;;;;31.48;4.78;;;6.10;99.90;;;;;;4954640;29;20039;-77
2022/01/18 04:33:25;;;;;;;17.65;5.15;;;6.20;99.90;;;;;;4954457;29;20528;-78
2022/01/18 04:35:50;;;;;;;24.77;3.78;;;6.20;99.90;;;;;;4938627;29;20047;-78
2022/01/18 04:38:16;;;;;;;24.63;5.65;;;6.20;99.90;;;;;;4955405;28;20032;-77
2022/01/18 04:40:44;;;;;;;25.73;4.10;;;6.10;99.90;;;;;;4954705;29;20043;-78
2022/01/18 04:43:17;;;;;;;14.40;3.60;;;6.20;99.90;;;;;;4953711;28;20047;-78
2022/01/18 04:48:35;;;;;;;36.70;7.90;;;6.20;99.90;;;;;;4954860;29;20053;-78
2022/01/18 04:51:10;;;;;;;24.30;4.15;;;6.20;99.90;;;;;;4954981;29;20061;-78
2022/01/18 04:53:39;;;;;;;28.40;4.75;;;6.20;99.90;;;;;;4954542;29;20058;-78
2022/01/18 04:56:10;;;;;;;25.05;5.15;;;6.20;99.90;;;;;;4953572;29;20043;-78
2022/01/18 04:58:36;;;;;;;22.80;4.80;;;6.20;99.90;;;;;;4954319;29;20039;-77
2022/01/18 05:01:04;;;;;;;28.02;4.22;;;6.20;99.90;;;;;;4954786;29;20507;-78
2022/01/18 05:03:30;;;;;;;32.70;5.50;;;6.20;99.90;;;;;;4953590;29;20054;-78
2022/01/18 05:06:00;;;;;;;29.38;6.18;;;6.20;99.90;;;;;;4954141;29;20031;-77
2022/01/18 05:08:26;;;;;;;33.38;5.07;;;6.10;99.90;;;;;;4954317;29;20047;-78
2022/01/18 05:10:57;;;;;;;19.73;3.80;;;6.20;99.90;;;;;;4955078;28;20043;-77
2022/01/18 05:16:19;;;;;;;21.70;4.70;;;6.10;99.90;;;;;;4953146;29;20059;-77
2022/01/18 05:21:31;;;;;;;27.88;6.97;;;6.10;99.90;;;;;;4954263;29;20049;-78
2022/01/18 05:23:57;;;;;;;24.02;4.65;;;6.10;99.90;;;;;;4954061;29;20050;-78
2022/01/18 05:26:24;;;;;;;19.73;5.13;;;6.10;99.90;;;;;;4954073;29;20043;-78
2022/01/18 05:28:51;;;;;;;24.02;5.07;;;6.10;99.90;;;;;;4954073;29;20377;-78
2022/01/18 05:31:16;;;;;;;24.98;5.85;;;6.10;99.90;;;;;;4955184;28;20094;-78
2022/01/18 05:33:42;;;;;;;18.90;4.97;;;6.10;99.90;;;;;;4954082;29;20047;-78
2022/01/18 05:36:11;;;;;;;27.77;5.22;;;6.10;99.90;;;;;;4953507;29;20091;-78
2022/01/18 05:38:38;;;;;;;20.23;5.57;;;6.10;99.90;;;;;;4937901;29;20407;-78
2022/01/18 05:41:05;;;;;;;27.02;7.03;;;6.10;99.90;;;;;;4953513;29;20039;-78
2022/01/18 05:43:31;;;;;;;20.17;4.95;;;6.00;99.90;;;;;;4953778;29;20043;-80
2022/01/18 05:45:57;;;;;;;31.50;8.43;;;6.00;99.90;;;;;;4956393;29;20582;-80
2022/01/18 05:48:23;;;;;;;23.85;7.45;;;6.00;99.90;;;;;;4954406;29;20050;-79
2022/01/18 05:50:49;;;;;;;16.90;6.40;;;6.00;99.90;;;;;;4955540;28;20035;-79
2022/01/18 05:53:15;;;;;;;26.83;6.82;;;5.90;99.90;;;;;;4954291;28;20081;-79
2022/01/18 05:55:40;;;;;;;28.77;6.38;;;5.90;99.90;;;;;;4936944;29;20142;-79
2022/01/18 05:58:06;;;;;;;24.25;6.03;;;6.00;99.90;;;;;;4938761;29;20086;-79
2022/01/18 06:00:32;;;;;;;14.40;5.00;;;5.90;99.90;;;;;;4938135;29;20074;-79
2022/01/18 06:08:10;;;;;;;17.77;4.78;;;5.90;99.90;;;;;;4953673;29;20054;-80
2022/01/18 06:10:36;;;;;;;16.42;4.82;;;5.80;99.90;;;;;;4954225;29;20495;-81
2022/01/18 06:13:03;;;;;;;17.08;3.80;;;5.80;99.90;;;;;;4953292;29;20094;-80
2022/01/18 06:15:30;;;;;;;15.05;5.47;;;5.80;99.90;;;;;;4953360;29;20494;-79
2022/01/18 06:17:56;;;;;;;16.83;4.70;;;5.80;99.90;;;;;;4953030;29;20051;-79
2022/01/18 06:20:22;;;;;;;17.13;4.95;;;5.70;99.90;;;;;;4953847;29;20078;-82
2022/01/18 06:22:51;;;;;;;19.05;5.07;;;5.70;99.90;;;;;;4957269;29;20097;-82
2022/01/18 06:25:18;;;;;;;20.55;6.25;;;5.80;99.90;;;;;;4956307;29;20503;-82
2022/01/18 06:27:44;;;;;;;10.82;4.28;;;5.70;99.90;;;;;;4957071;29;20047;-82
2022/01/18 06:30:10;;;;;;;12.52;3.85;;;5.70;99.90;;;;;;4941051;29;20114;-82
2022/01/18 06:32:40;;;;;;;7.85;3.72;;;5.70;99.90;;;;;;4956432;29;20039;-82
2022/01/18 06:35:07;;;;;;;27.15;6.93;;;5.70;99.90;;;;;;4956210;29;20070;-82
2022/01/18 06:37:33;;;;;;;22.63;8.07;;;5.70;99.90;;;;;;4956400;29;20499;-83
2022/01/18 06:40:01;;;;;;;14.48;5.78;;;5.70;99.90;;;;;;4956442;29;20119;-82
2022/01/18 06:42:27;;;;;;;23.38;6.75;;;5.60;99.90;;;;;;4955078;29;20043;-82
2022/01/18 06:44:53;;;;;;;23.55;6.43;;;5.60;99.90;;;;;;4939492;29;20047;-82
2022/01/18 06:47:19;;;;;;;16.90;5.72;;;5.60;99.90;;;;;;4958177;29;20054;-82
2022/01/18 06:49:45;;;;;;;25.50;6.97;;;5.60;99.90;;;;;;4955505;29;20035;-83
2022/01/18 06:52:10;;;;;;;15.57;6.95;;;5.60;99.90;;;;;;4938395;29;20071;-82
2022/01/18 06:54:36;;;;;;;17.17;5.07;;;5.60;99.90;;;;;;4955062;29;20050;-82
2022/01/18 06:57:02;;;;;;;18.52;4.10;;;5.60;99.90;;;;;;4938213;29;20039;-82
2022/01/18 06:59:28;;;;;;;11.82;3.75;;;5.60;99.90;;;;;;4937727;29;20058;-82
2022/01/18 07:01:53;;;;;;;10.88;3.53;;;5.60;99.90;;;;;;4954535;29;20074;-82
2022/01/18 07:04:19;;;;;;;19.27;5.28;;;5.60;99.90;;;;;;4955801;29;20155;-82
2022/01/18 07:06:45;;;;;;;10.95;3.88;;;5.70;99.90;;;;;;4940381;29;20050;-78
2022/01/18 07:09:12;;;;;;;14.77;3.85;;;5.60;99.90;;;;;;4956670;29;20110;-80
2022/01/18 07:11:38;;;;;;;13.02;3.83;;;5.60;99.90;;;;;;4956534;29;20050;-79
2022/01/18 07:14:03;;;;;;;7.68;3.22;;;5.70;99.90;;;;;;4956459;29;20122;-78
2022/01/18 07:16:29;;;;;;;18.85;6.10;;;5.60;99.90;;;;;;4940167;29;20158;-81
2022/01/18 07:18:55;;;;;;;14.10;4.47;;;5.70;99.90;;;;;;4956325;29;20039;-79
2022/01/18 07:21:20;;;;;;;12.93;3.67;;;5.70;99.90;;;;;;4956545;29;20094;-79
2022/01/18 07:23:46;;;;;;;9.30;4.13;;;5.70;99.90;;;;;;4940228;29;20046;-79
2022/01/18 07:26:11;;;;;;;16.73;5.30;;;5.70;99.90;;;;;;4956228;29;20043;-81
2022/01/18 07:28:37;;;;;;;34.67;5.05;;;5.70;99.90;;;;;;4956139;29;20061;-79
2022/01/18 07:31:02;;;;;;;23.50;6.22;;;5.70;99.90;;;;;;4956114;29;20118;-78
2022/01/18 07:33:29;;;;;;;17.13;5.97;;;5.70;99.90;;;;;;4956018;29;20071;-79
2022/01/18 07:35:55;;;;;;;16.38;4.88;;;5.70;99.90;;;;;;4956126;29;20051;-79
2022/01/18 07:38:20;;;;;;;15.73;5.00;;;5.70;99.90;;;;;;4956153;29;20098;-78
2022/01/18 07:40:47;;;;;;;17.35;5.35;;;5.70;99.90;;;;;;4940264;29;20051;-80
2022/01/18 07:43:18;;;;;;;16.08;5.95;;;5.70;99.90;;;;;;4956373;29;20047;-79
2022/01/18 07:45:45;;;;;;;12.68;4.80;;;5.80;99.90;;;;;;4956788;29;20082;-80
2022/01/18 07:48:12;;;;;;;16.45;4.45;;;5.70;99.90;;;;;;4956367;29;20099;-79
2022/01/18 07:50:39;;;;;;;11.88;4.65;;;5.70;99.90;;;;;;4955787;29;20050;-78
2022/01/18 07:53:05;;;;;;;15.15;4.43;;;5.70;99.90;;;;;;4955941;29;20122;-79
2022/01/18 07:55:30;;;;;;;19.45;5.35;;;5.70;99.90;;;;;;4955735;29;20538;-79
2022/01/18 07:57:58;;;;;;;18.45;5.50;;;5.70;99.90;;;;;;4957419;28;20035;-79
2022/01/18 08:00:24;;;;;;;16.70;4.78;;;5.80;99.90;;;;;;4939961;29;20046;-79
2022/01/18 08:02:49;;;;;;;17.70;4.45;;;5.70;99.90;;;;;;4955793;29;20051;-79
2022/01/18 08:05:15;;;;;;;14.48;5.20;;;5.70;99.90;;;;;;4957760;29;20039;-81
2022/01/18 08:07:41;;;;;;;19.13;4.00;;;5.70;99.90;;;;;;4959605;29;20039;-82
2022/01/18 08:10:08;;;;;;;25.13;5.45;;;5.70;99.90;;;;;;4939862;29;20067;-80
2022/01/18 08:12:34;;;;;;;13.07;4.40;;;5.70;99.90;;;;;;4955362;29;20054;-78
2022/01/18 08:15:03;;;;;;;17.95;5.72;;;5.70;99.90;;;;;;4939334;29;20046;-81
2022/01/18 08:17:30;;;;;;;15.30;5.18;;;5.70;99.90;;;;;;4957714;28;20043;-82
2022/01/18 08:19:55;;;;;;;15.25;5.13;;;5.80;99.90;;;;;;4959437;29;20043;-81
2022/01/18 08:22:21;;;;;;;18.33;4.82;;;5.70;99.90;;;;;;4959089;29;20062;-82
2022/01/18 08:24:47;;;;;;;20.40;4.85;;;5.70;99.90;;;;;;4958263;29;20047;-82
2022/01/18 08:27:12;;;;;;;20.67;6.25;;;5.70;99.90;;;;;;4941832;29;20039;-82
2022/01/18 08:29:38;;;;;;;17.00;5.53;;;5.80;99.90;;;;;;4957697;29;20031;-81
2022/01/18 08:32:05;;;;;;;17.52;4.53;;;5.70;99.90;;;;;;4955514;29;20506;-79
2022/01/18 08:34:31;;;;;;;27.08;5.90;;;5.70;99.90;;;;;;4954983;29;20279;-79
2022/01/18 08:36:57;;;;;;;21.77;4.93;;;5.80;99.90;;;;;;4954759;29;20043;-80
2022/01/18 08:39:22;;;;;;;17.60;6.10;;;5.80;99.90;;;;;;4938890;29;20061;-79
2022/01/18 08:41:48;;;;;;;20.98;5.75;;;5.80;99.90;;;;;;4938964;29;20039;-79
2022/01/18 08:44:14;;;;;;;23.17;6.53;;;5.80;99.90;;;;;;4954822;29;20043;-79
2022/01/18 08:46:40;;;;;;;27.85;6.47;;;5.80;99.90;;;;;;4954478;29;20519;-80
2022/01/18 08:49:07;;;;;;;16.83;5.70;;;5.90;99.90;;;;;;4954635;29;20115;-79
2022/01/18 08:51:32;;;;;;;34.53;7.22;;;5.90;99.90;;;;;;4954655;29;20380;-80
2022/01/18 08:53:59;;;;;;;21.42;6.70;;;5.90;99.90;;;;;;4938764;29;20090;-79
2022/01/18 08:56:25;;;;;;;21.25;6.82;;;5.90;99.90;;;;;;4954373;29;20094;-79
2022/01/18 08:58:50;;;;;;;21.75;5.40;;;5.90;99.90;;;;;;4954465;29;20047;-79
2022/01/18 09:01:16;;;;;;;19.15;5.65;;;6.00;99.90;;;;;;4957844;29;20130;-81
2022/01/18 09:03:42;;;;;;;22.48;6.10;;;6.00;99.90;;;;;;4958156;29;20558;-81
2022/01/18 09:06:12;;;;;;;26.52;7.05;;;6.00;99.90;;;;;;4958289;29;20124;-81
2022/01/18 09:08:37;;;;;;;20.52;6.72;;;6.00;99.90;;;;;;4958423;29;20163;-81
2022/01/18 09:11:04;;;;;;;15.52;6.05;;;6.10;99.90;;;;;;4958093;29;20046;-79
2022/01/18 09:13:31;;;;;;;16.35;5.28;;;6.10;99.90;;;;;;4940211;29;20047;-78
2022/01/18 09:15:57;;;;;;;23.88;6.70;;;6.10;99.90;;;;;;4956492;29;20051;-79
2022/01/18 09:18:22;;;;;;;19.70;6.07;;;6.10;99.90;;;;;;4940744;29;20054;-78
2022/01/18 09:20:48;;;;;;;15.70;6.43;;;6.10;99.90;;;;;;4956859;29;20039;-79
2022/01/18 09:23:14;;;;;;;19.30;7.30;;;6.20;99.90;;;;;;4956189;29;20491;-79
2022/01/18 09:25:40;;;;;;;14.23;6.00;;;6.20;99.90;;;;;;4955967;29;20062;-79
2022/01/18 09:28:05;;;;;;;15.23;5.70;;;6.30;99.90;;;;;;4955596;28;20122;-78
2022/01/18 09:30:32;;;;;;;18.83;6.35;;;6.30;99.90;;;;;;4956669;29;20049;-79
2022/01/18 09:32:58;;;;;;;20.65;7.47;;;6.30;99.90;;;;;;4956881;29;20051;-79
2022/01/18 09:35:25;;;;;;;18.95;6.78;;;6.30;99.90;;;;;;4957038;29;20457;-79
2022/01/18 09:37:51;;;;;;;17.80;7.28;;;6.30;99.90;;;;;;4956723;29;20054;-79
2022/01/18 09:40:20;;;;;;;21.20;6.22;;;6.30;99.90;;;;;;4956838;29;20127;-79
2022/01/18 09:42:47;;;;;;;23.50;6.97;;;6.30;99.90;;;;;;4956380;29;20046;-79
2022/01/18 09:45:15;;;;;;;22.85;7.60;;;6.30;99.90;;;;;;4955898;29;20047;-79
2022/01/18 09:47:44;;;;;;;20.83;7.47;;;6.30;99.90;;;;;;4955473;29;20051;-79
2022/01/18 09:50:12;;;;;;;14.73;7.05;;;6.30;99.90;;;;;;4939958;29;20406;-79
2022/01/18 09:52:38;;;;;;;16.10;5.55;;;6.40;99.90;;;;;;4956150;29;20409;-79
2022/01/18 09:55:07;;;;;;;11.90;5.97;;;6.30;99.90;;;;;;4956046;29;20047;-79
2022/01/18 09:57:34;;;;;;;14.95;5.20;;;6.30;99.90;;;;;;4954812;29;20043;-79
2022/01/18 10:00:00;;;;;;;16.35;5.03;;;6.30;99.90;;;;;;4954840;29;20043;-79
2022/01/18 10:02:26;;;;;;;12.52;4.25;;;6.40;99.90;;;;;;4955292;29;20437;-79
2022/01/18 10:04:53;;;;;;;11.80;4.20;;;6.40;99.90;;;;;;4954610;29;20085;-78
2022/01/18 10:07:32;;;;;;;11.18;4.18;;;6.40;99.90;;;;;;4954843;29;20054;-77
2022/01/18 10:09:59;;;;;;;12.02;4.57;;;6.50;99.90;;;;;;4953465;29;20557;-77
2022/01/18 10:12:24;;;;;;;12.02;4.13;;;6.40;99.90;;;;;;4953037;29;20052;-77
2022/01/18 10:14:56;;;;;;;14.07;4.72;;;6.50;99.90;;;;;;4953108;29;20426;-78
2022/01/18 10:17:48;;;;;;;14.95;3.92;;;6.50;99.90;;;;;;4953341;29;20537;-77
2022/01/18 10:20:19;;;;;;;15.90;4.07;;;6.50;99.90;;;;;;4951134;29;20142;-77
2022/01/18 10:22:49;;;;;;;7.87;3.63;;;6.60;99.90;;;;;;4953265;29;20050;-77
2022/01/18 10:25:24;;;;;;;10.50;3.75;;;6.60;99.90;;;;;;4952649;29;20303;-78
2022/01/18 10:27:53;;;;;;;9.00;3.33;;;6.70;99.90;;;;;;4954147;28;20498;-78
2022/01/18 10:30:32;;;;;;;10.00;4.40;;;6.70;99.90;;;;;;4953067;29;20041;-78
2022/01/18 10:33:12;;;;;;;9.35;3.22;;;6.80;99.90;;;;;;4952939;29;20054;-78
2022/01/18 10:36:11;;;;;;;11.00;3.40;;;6.90;99.90;;;;;;4952649;29;20422;-78
2022/01/18 10:38:47;;;;;;;9.55;2.63;;;7.00;99.90;;;;;;4952704;29;20055;-79
2022/01/18 10:41:30;;;;;;;9.68;3.60;;;7.00;99.90;;;;;;4952729;28;20131;-78
2022/01/18 10:44:11;;;;;;;11.95;2.72;;;7.00;99.90;;;;;;4937071;29;20446;-78
2022/01/18 10:46:47;;;;;;;14.05;4.13;;;7.00;99.90;;;;;;4953142;29;20054;-78
2022/01/18 10:49:30;;;;;;;9.98;2.63;;;7.10;99.90;;;;;;4953494;29;20057;-79
2022/01/18 10:52:08;;;;;;;10.57;2.65;;;7.10;99.90;;;;;;4952743;29;20047;-78
2022/01/18 10:54:47;;;;;;;10.88;2.85;;;7.20;99.90;;;;;;4936752;29;20054;-78
2022/01/18 10:57:18;;;;;;;7.72;3.03;;;7.20;99.90;;;;;;4952428;29;20051;-78
2022/01/18 10:59:44;;;;;;;6.85;2.78;;;7.20;99.90;;;;;;4952386;29;20122;-78
2022/01/18 11:02:10;;;;;;;11.27;2.22;;;7.20;99.90;;;;;;4952797;29;20443;-78
2022/01/18 11:04:38;;;;;;;7.95;2.55;;;7.30;99.90;;;;;;4952565;29;20051;-78
2022/01/18 11:07:04;;;;;;;6.20;2.28;;;7.30;99.90;;;;;;4952269;29;20085;-78
2022/01/18 11:09:32;;;;;;;14.27;2.80;;;7.40;99.90;;;;;;4952371;29;20443;-78
2022/01/18 11:11:57;;;;;;;7.25;2.15;;;7.40;99.90;;;;;;4952464;29;20079;-78
2022/01/18 11:14:25;;;;;;;5.72;1.77;;;7.40;99.90;;;;;;4952665;29;20082;-79
2022/01/18 11:16:52;;;;;;;5.53;1.52;;;7.40;99.90;;;;;;4952186;29;20083;-77
2022/01/18 11:21:50;;;;;;;4.95;1.50;;;7.30;99.90;;;;;;4953367;29;20051;-79
2022/01/18 11:24:17;;;;;;;10.52;2.92;;;7.30;99.90;;;;;;4953229;29;20517;-79
2022/01/18 11:26:44;;;;;;;10.77;2.20;;;7.30;99.90;;;;;;4937020;29;20075;-79
2022/01/18 11:29:12;;;;;;;6.78;1.90;;;7.30;99.90;;;;;;4953098;29;20071;-79
2022/01/18 11:31:40;;;;;;;10.18;2.08;;;7.40;99.90;;;;;;4954033;29;20166;-79
2022/01/18 11:34:09;;;;;;;6.13;1.20;;;7.40;99.90;;;;;;4954777;29;20058;-81
2022/01/18 11:36:48;;;;;;;6.05;1.40;;;7.40;99.90;;;;;;4955536;29;20402;-81
2022/01/18 11:39:17;;;;;;;5.28;1.90;;;7.40;99.90;;;;;;4955605;29;20393;-81
2022/01/18 11:41:43;;;;;;;6.95;1.50;;;7.30;99.90;;;;;;4954312;29;20406;-81
2022/01/18 11:44:17;;;;;;;10.55;1.75;;;7.30;99.90;;;;;;4954566;29;20054;-81
2022/01/18 11:46:52;;;;;;;9.80;1.80;;;7.20;99.90;;;;;;4952809;29;20043;-81
2022/01/18 11:49:22;;;;;;;9.32;1.50;;;7.20;99.90;;;;;;4955378;29;20126;-81
2022/01/18 11:51:53;;;;;;;7.57;1.92;;;7.10;99.90;;;;;;4956311;28;20130;-81
2022/01/18 11:55:16;;;;;;;8.03;1.83;;;7.20;99.90;;;;;;4959887;29;20051;-81
2022/01/18 11:57:22;;;;;;;6.30;1.50;;;7.20;99.90;;;;;;4959160;29;20423;-81
2022/01/18 12:00:11;;;;;;;15.63;3.55;;;7.20;99.90;;;;;;4958882;29;20054;-81
2022/01/18 12:02:43;;;;;;;8.40;1.70;;;7.10;99.90;;;;;;4959971;29;20522;-81
2022/01/18 12:05:19;;;;;;;;;;;7.00;99.90;;;;;;4959287;29;20106;-81
2022/01/18 12:07:47;;;;;;;8.20;1.90;;;7.00;99.90;;;;;;4975226;28;20012;-80
2022/01/18 12:10:29;;;;;;;5.28;1.50;;;7.10;99.90;;;;;;4958605;29;20072;-77
2022/01/18 12:12:56;;;;;;;;;;;7.10;99.90;;;;;;4955814;29;20053;-77
2022/01/18 12:15:26;;;;;;;8.05;1.70;;;7.00;99.90;;;;;;4939435;29;19918;-77
2022/01/18 12:17:56;;;;;;;8.80;2.17;;;7.10;99.90;;;;;;4955773;29;20054;-78
2022/01/18 12:20:48;;;;;;;6.97;1.60;;;7.10;99.90;;;;;;4955382;29;20047;-78
2022/01/18 12:23:17;;;;;;;7.50;1.70;;;7.20;99.90;;;;;;4955444;29;20054;-78
2022/01/18 12:26:03;;;;;;;9.57;2.20;;;7.20;99.90;;;;;;4938912;29;20411;-81
2022/01/18 12:34:40;;;;;;;13.38;2.80;;;7.20;99.90;;;;;;4956093;29;20489;-79
2022/01/18 12:37:10;;;;;;;8.88;2.85;;;7.10;99.90;;;;;;4955515;29;20055;-78
2022/01/18 12:45:14;;;;;;;9.57;3.33;;;7.00;99.90;;;;;;4955030;29;19922;-78
2022/01/18 12:47:47;;;;;;;6.35;2.95;;;7.00;99.90;;;;;;4955155;29;20047;-78
2022/01/18 12:50:14;;;;;;;12.60;3.47;;;7.00;99.90;;;;;;4955674;29;20039;-81
2022/01/18 12:52:45;;;;;;;11.18;3.47;;;6.90;99.90;;;;;;4956832;29;20054;-79
2022/01/18 12:55:44;;;;;;;17.67;4.15;;;7.00;99.90;;;;;;4954786;29;20066;-79
2022/01/18 12:58:40;;;;;;;10.15;4.60;;;6.90;99.90;;;;;;4954825;29;20047;-78
2022/01/18 13:01:10;;;;;;;10.63;3.78;;;6.90;99.90;;;;;;4954191;29;20079;-78
2022/01/18 13:03:44;;;;;;;9.15;3.22;;;6.80;99.90;;;;;;4953675;28;20062;-78
2022/01/18 13:06:11;;;;;;;14.30;3.75;;;6.90;99.90;;;;;;4954392;29;20043;-78
2022/01/18 13:08:46;;;;;;;15.85;3.92;;;6.80;99.90;;;;;;4954983;29;20490;-78
2022/01/18 13:11:15;;;;;;;15.68;4.65;;;6.80;99.90;;;;;;4954395;29;20122;-78
2022/01/18 13:13:49;;;;;;;11.23;3.08;;;6.80;99.90;;;;;;4954693;29;20043;-78
2022/01/18 13:27:09;;;;;;;11.07;2.75;;;6.90;99.90;;;;;;4954331;29;20149;-78
2022/01/18 13:29:35;;;;;;;16.83;3.47;;;6.90;99.90;;;;;;4954304;29;20047;-78
2022/01/18 13:32:02;;;;;;;7.28;2.78;;;6.90;99.90;;;;;;4954167;29;20059;-78
2022/01/18 13:34:37;;;;;;;10.80;3.22;;;6.90;99.90;;;;;;4954410;29;20051;-78
2022/01/18 13:37:07;;;;;;;8.88;3.05;;;6.90;99.90;;;;;;4954126;29;20442;-78
2022/01/18 13:39:40;;;;;;;9.73;3.45;;;7.00;99.90;;;;;;4954026;29;20295;-78
2022/01/18 13:42:10;;;;;;;13.02;3.75;;;7.00;99.90;;;;;;4954573;29;20051;-78
2022/01/18 13:44:36;;;;;;;11.68;3.00;;;6.90;99.90;;;;;;4937943;29;20098;-78
2022/01/18 13:47:17;;;;;;;10.52;3.42;;;6.90;99.90;;;;;;4953783;29;20047;-78
2022/01/18 13:49:43;;;;;;;11.65;3.60;;;6.90;99.90;;;;;;4955645;29;20070;-78
2022/01/18 13:52:13;;;;;;;12.00;3.38;;;6.90;99.90;;;;;;4956153;29;20438;-78
2022/01/18 13:54:53;;;;;;;10.73;3.60;;;6.90;99.90;;;;;;4954755;29;20109;-78
2022/01/18 13:57:21;;;;;;;13.50;4.32;;;6.80;99.90;;;;;;4954217;29;20074;-78
2022/01/18 13:59:50;;;;;;;12.52;4.05;;;6.90;99.90;;;;;;4953907;29;20083;-78
2022/01/18 14:02:19;;;;;;;15.45;3.85;;;6.80;99.90;;;;;;4954255;29;20184;-78
2022/01/18 14:04:46;;;;;;;13.25;3.70;;;6.80;99.90;;;;;;4956203;29;20526;-78
2022/01/18 14:07:12;;;;;;;11.75;4.00;;;6.80;99.90;;;;;;4955278;29;20093;-78
2022/01/18 14:09:38;;;;;;;10.63;3.85;;;6.80;99.90;;;;;;4954572;29;20107;-78
2022/01/18 14:12:05;;;;;;;9.75;4.30;;;6.80;99.90;;;;;;4954206;29;20118;-78
2022/01/18 14:14:35;;;;;;;15.57;4.65;;;6.80;99.90;;;;;;4951943;28;20051;-78
2022/01/18 14:17:11;;;;;;;15.75;4.88;;;6.80;99.90;;;;;;4952728;29;20039;-78
2022/01/18 14:19:39;;;;;;;15.82;4.03;;;6.90;99.90;;;;;;4952161;29;20153;-78
2022/01/18 14:22:21;;;;;;;22.83;4.25;;;6.90;99.90;;;;;;4952557;29;20038;-78
2022/01/18 14:25:04;;;;;;;14.10;3.92;;;6.80;99.90;;;;;;4953024;29;20047;-78